• Join FlightAware (Why Join?)
  • Login
  • US Flag 
04:16AM EDT


 

Airport Tracker/Info


-or-


 

Live Flight TrackerFlight Track Log ✈ CPZ5750 ✈ 05-Nov-2013 ✈ KMSP - KSTL

Flight Track Log - Related Links

Times and Time Zones

All times are in EST time to prevent confusion due to time zone crossing. See the CPZ5750 flight status page for this flight to view local times or setup timezone preferences in your user account.

Time Position Orientation Groundspeed Altitude Reporting Facility
EST Latitude Longitude Course Direction KTS MPH feet Rate Location/Type
11:20AM 44.9000 -93.2500 159° South 165 190 2,100  Level Minneapolis TRACON
11:21AM 44.8883 -93.2983 251° West 173 199 2,800 2,160 Climbing Minneapolis Center
11:22AM 44.6157 -93.0851 152° Southeast  Level Estimated
11:22AM 44.8758 -93.4050 261° West 235 270 6,000  Level Minneapolis Center
11:23AM 44.5269 -93.0398 150° Southeast  Level Estimated
11:23AM 44.8153 -93.4542 210° Southwest 262 302 9,000  Level Minneapolis Center
11:24AM 44.4380 -92.9946 153° Southeast  Level Estimated
11:24AM 44.7447 -93.4875 199° South 273 314 11,500  Level Minneapolis Center
11:25AM 44.3497 -92.9477 159° South  Level FlightAware Approximate
11:25AM 44.6706 -93.4219 148° Southeast 330 380 13,900  Level Minneapolis Center
11:26AM 44.5789 -93.3311 145° Southeast 343 395 16,400 2,040 Climbing Minneapolis Center
11:27AM 44.4964 -93.2542 146° Southeast 361 415 18,200 1,800 Climbing Minneapolis Center
11:28AM 44.4114 -93.1756 147° Southeast 367 422 20,200 1,860 Climbing Minneapolis Center
11:29AM 44.3239 -93.0936 146° Southeast 377 434 22,100 1,500 Climbing Minneapolis Center
11:30AM 44.2322 -93.0092 147° Southeast 394 453 23,300 1,500 Climbing Minneapolis Center
11:31AM 44.1181 -92.9042 147° Southeast 410 472 25,200 1,500 Climbing Minneapolis Center
11:32AM 44.0217 -92.8158 147° Southeast 415 478 26,500 840 Climbing Minneapolis Center
11:33AM 43.9219 -92.7253 147° Southeast 427 491 27,000 240 Climbing Minneapolis Center
11:34AM 43.8253 -92.6358 146° Southeast 421 484 27,000  Level Minneapolis Center
11:35AM 43.7111 -92.5858 162° South 395 455 27,000  Level Minneapolis Center
11:36AM 43.6064 -92.5689 173° South 385 443 27,000  Level Minneapolis Center
11:37AM 43.5025 -92.5506 173° South 380 437 27,000  Level Minneapolis Center
11:38AM 43.3964 -92.5336 173° South 385 443 27,000  Level Minneapolis Center
11:39AM 43.2681 -92.5128 173° South 390 449 27,000  Level Minneapolis Center
11:40AM 43.1619 -92.4983 174° South 387 445 27,000  Level Minneapolis Center
11:41AM 43.0531 -92.4800 173° South 391 450 27,000  Level Chicago Center
11:42AM 42.9458 -92.4628 173° South 392 451 27,000  Level Chicago Center
11:43AM 42.8169 -92.4369 172° South 395 455 27,000  Level Chicago Center
11:44AM 42.7117 -92.3950 164° South 399 459 27,000  Level Chicago Center
11:45AM 42.6064 -92.3517 163° South 400 460 27,000  Level Chicago Center
11:46AM 42.5017 -92.3081 163° South 399 459 27,000  Level Chicago Center
11:48AM 42.3031 -92.2289 164° South 404 465 27,000  Level Kansas City Center
11:49AM 42.1947 -92.1861 164° South 405 466 27,000  Level Kansas City Center
11:50AM 42.0894 -92.1422 163° South 403 464 27,000  Level Kansas City Center
11:51AM 41.9839 -92.1025 164° South 399 459 27,000  Level Kansas City Center
11:52AM 41.8572 -92.0528 164° South 398 458 27,000  Level Kansas City Center
11:53AM 41.7514 -92.0094 163° South 399 459 27,000  Level Kansas City Center
11:54AM 41.6442 -91.9664 163° South 402 463 27,000  Level Kansas City Center
11:55AM 41.5392 -91.9261 164° South 398 458 27,000  Level Kansas City Center
11:56AM 41.4344 -91.8847 163° South 396 456 27,000  Level Kansas City Center
11:57AM 41.3283 -91.8428 163° South 398 458 27,000  Level Kansas City Center
11:58AM 41.2053 -91.7681 155° Southeast 409 471 27,000  Level Kansas City Center
11:59AM 41.1564 -91.7344 153° Southeast 407 468 27,000  Level Minneapolis Center
12:00PM 41.0828 -91.6922 157° South 413 475 27,000  Level Chicago Center
12:01PM 40.9742 -91.6558 166° South 406 467 27,000  Level Chicago Center
12:02PM 40.8458 -91.6133 166° South 399 459 27,000  Level Chicago Center
12:03PM 40.7389 -91.5767 165° South 396 456 27,000  Level Chicago Center
12:04PM 40.6339 -91.5244 159° South 403 464 27,000  Level Chicago Center
12:05PM 40.5483 -91.4783 158° South 406 467 27,000  Level Kansas City Center
12:06PM 40.4436 -91.4233 158° South 408 470 27,000  Level Kansas City Center
12:07PM 40.3394 -91.3692 158° South 406 467 27,000  Level Kansas City Center
12:08PM 40.2344 -91.3144 158° South 406 467 27,000  Level Kansas City Center
12:09PM 40.1286 -91.2600 159° South 408 470 27,000 -360 Level Kansas City Center
12:10PM 40.0236 -91.2053 158° South 410 472 26,300 -960 Descending Kansas City Center
12:11PM 39.9233 -91.1542 159° South 398 458 25,100 -1,920 Descending Kansas City Center
12:12PM 39.8097 -91.0950 158° South 376 433 22,400 -2,340 Descending Kansas City Center
12:13PM 39.7250 -91.0517 159° South 369 425 20,400 -1,980 Descending Kansas City Center
12:14PM 39.6339 -91.0044 158° South 359 413 18,400 -2,220 Descending Kansas City Center
12:15PM 39.5314 -90.9525 159° South 336 387 15,900 -2,160 Descending Kansas City Center
12:16PM 39.4467 -90.9094 159° South 328 377 14,000 -1,920 Descending Kansas City Center
12:17PM 39.3600 -90.8664 159° South 332 382 12,000 -1,500 Descending Kansas City Center
12:18PM 39.2775 -90.8172 155° Southeast 328 377 11,000 -960 Descending Kansas City Center
12:19PM 39.2022 -90.7600 149° Southeast 319 367 10,100 -900 Descending Kansas City Center
12:20PM 39.1300 -90.7217 158° South 292 336 9,200 -1,260 Descending Kansas City Center
12:21PM 39.0625 -90.6858 158° South 271 312 7,600 -1,620 Descending Kansas City Center
12:22PM 38.9831 -90.6417 157° South 262 302 5,900 -1,620 Descending Kansas City Center
12:23PM 38.9208 -90.6089 158° South 251 289 4,300 -1,140 Descending Kansas City Center
12:24PM 38.8594 -90.5756 157° South 245 282 3,600 -720 Descending Kansas City Center
12:25PM 38.8169 -90.5072 129° Southeast 253 291 2,900 -900 Descending Kansas City Center
12:26PM 38.7844 -90.4428 123° Southeast 228 262 1,800 -960 Descending Kansas City Center
12:27PM 38.7644 -90.3994 121° Southeast 172 198 1,000 -660 Descending Kansas City Center
12:28PM 38.7422 -90.3561 123° Southeast 149 171 500 -540 Descending Kansas City Center